createdAt,value
2023-04-08T00:01:32.411Z,28.45
2023-04-08T00:03:59.636Z,24.88
2023-04-08T00:06:27.240Z,20.58
2023-04-08T00:08:54.317Z,20.77
2023-04-08T00:11:21.382Z,28.02
2023-04-08T00:13:48.459Z,26.88
2023-04-08T00:16:16.182Z,22.48
2023-04-08T00:18:43.552Z,25.58
2023-04-08T00:21:10.775Z,20.85
2023-04-08T00:23:37.873Z,23.73
2023-04-08T00:26:04.910Z,28.23
2023-04-08T00:28:32.104Z,26.05
2023-04-08T00:30:59.201Z,26.67
2023-04-08T00:33:26.321Z,29.80
2023-04-08T00:35:53.443Z,31.98
2023-04-08T00:38:20.928Z,28.73
2023-04-08T00:40:48.002Z,28.48
2023-04-08T00:43:16.536Z,28.08
2023-04-08T00:45:43.608Z,29.13
2023-04-08T00:48:10.784Z,32.20
2023-04-08T00:50:37.843Z,29.33
2023-04-08T00:53:04.903Z,28.47
2023-04-08T00:55:31.973Z,25.77
2023-04-08T00:57:59.062Z,29.42
2023-04-08T01:00:26.225Z,30.98
2023-04-08T01:03:07.140Z,29.20
2023-04-08T01:05:41.498Z,30.23
2023-04-08T01:08:08.588Z,28.70
2023-04-08T01:10:36.302Z,30.13
2023-04-08T01:13:08.336Z,31.58
2023-04-08T01:15:36.154Z,30.45
2023-04-08T01:18:03.238Z,28.67
2023-04-08T01:20:30.507Z,27.85
2023-04-08T01:23:16.777Z,27.85
2023-04-08T01:25:53.614Z,27.73
2023-04-08T01:28:21.268Z,32.08
2023-04-08T01:30:48.414Z,27.92
2023-04-08T01:33:16.389Z,27.17
2023-04-08T01:35:43.727Z,26.30
2023-04-08T01:38:11.127Z,29.70
2023-04-08T01:40:38.679Z,26.60
2023-04-08T01:43:06.330Z,28.83
2023-04-08T01:45:33.414Z,29.10
2023-04-08T01:48:00.940Z,24.58
2023-04-08T01:50:28.126Z,24.63
2023-04-08T01:52:55.234Z,26.80
2023-04-08T01:55:22.312Z,27.08
2023-04-08T01:57:49.999Z,26.30
2023-04-08T02:00:17.580Z,24.42
2023-04-08T02:02:44.789Z,28.20
2023-04-08T02:05:11.997Z,28.15
2023-04-08T02:07:39.050Z,26.95
2023-04-08T02:10:06.412Z,26.35
2023-04-08T02:12:33.911Z,27.48
2023-04-08T02:15:01.091Z,29.63
2023-04-08T02:17:41.181Z,26.23
2023-04-08T02:20:09.011Z,28.95
2023-04-08T02:22:39.837Z,27.25
2023-04-08T02:25:09.244Z,26.75
2023-04-08T02:27:36.335Z,28.02
2023-04-08T02:30:05.060Z,29.73
2023-04-08T02:32:32.548Z,32.28
2023-04-08T02:35:00.518Z,27.35
2023-04-08T02:37:28.989Z,28.60
2023-04-08T02:39:56.178Z,31.05
2023-04-08T02:42:23.265Z,29.13
2023-04-08T02:44:50.369Z,27.63
2023-04-08T02:47:17.519Z,34.92
2023-04-08T02:49:44.599Z,29.75
2023-04-08T02:52:11.721Z,25.30
2023-04-08T02:54:38.838Z,26.85
2023-04-08T02:57:05.996Z,27.05
2023-04-08T02:59:33.062Z,28.70
2023-04-08T03:02:00.464Z,25.40
2023-04-08T03:04:27.636Z,28.70
2023-04-08T03:06:54.716Z,27.25
2023-04-08T03:09:21.794Z,27.60
2023-04-08T03:11:53.058Z,27.80
2023-04-08T03:14:21.037Z,28.83
2023-04-08T03:16:48.410Z,22.15
2023-04-08T03:19:15.539Z,23.93
2023-04-08T03:21:42.605Z,30.23
2023-04-08T03:24:09.686Z,28.20
2023-04-08T03:26:36.784Z,27.65
2023-04-08T03:29:03.833Z,27.38
2023-04-08T03:31:31.015Z,28.50
2023-04-08T03:33:58.413Z,28.33
2023-04-08T03:36:26.692Z,27.50
2023-04-08T03:38:53.808Z,28.92
2023-04-08T03:41:21.358Z,25.55
2023-04-08T03:43:48.472Z,24.65
2023-04-08T03:46:15.591Z,23.63
2023-04-08T03:48:42.684Z,24.27
2023-04-08T03:51:09.744Z,27.20
2023-04-08T03:53:36.832Z,27.00
2023-04-08T03:56:04.533Z,28.30
2023-04-08T03:58:31.989Z,23.25
2023-04-08T04:00:59.147Z,25.40
2023-04-08T04:03:26.335Z,24.83
2023-04-08T04:05:53.625Z,23.05
2023-04-08T04:08:20.821Z,25.50
2023-04-08T04:10:47.887Z,23.27
2023-04-08T04:13:15.027Z,25.58
2023-04-08T04:15:42.136Z,22.83
2023-04-08T04:18:09.468Z,26.20
2023-04-08T04:20:38.177Z,22.83
2023-04-08T04:23:05.258Z,25.75
2023-04-08T04:25:32.334Z,25.08
2023-04-08T04:27:59.388Z,24.42
2023-04-08T04:30:27.077Z,23.00
2023-04-08T04:32:54.242Z,24.50
2023-04-08T04:35:21.464Z,26.08
2023-04-08T04:37:50.146Z,26.20
2023-04-08T04:40:17.269Z,22.50
2023-04-08T04:42:44.356Z,24.48
2023-04-08T04:45:11.782Z,23.58
2023-04-08T04:47:38.883Z,22.70
2023-04-08T04:50:07.618Z,21.80
2023-04-08T04:52:34.687Z,24.13
2023-04-08T04:55:01.762Z,23.58
2023-04-08T04:57:28.832Z,23.25
2023-04-08T04:59:55.982Z,22.77
2023-04-08T05:02:23.195Z,21.97
2023-04-08T05:04:50.431Z,25.30
2023-04-08T05:07:17.560Z,27.40
2023-04-08T05:09:44.775Z,25.77
2023-04-08T05:12:12.543Z,22.58
2023-04-08T05:14:41.177Z,19.90
2023-04-08T05:17:08.335Z,21.45
2023-04-08T05:19:35.417Z,21.30
2023-04-08T05:22:02.522Z,20.87
2023-04-08T05:24:29.599Z,21.65
2023-04-08T05:26:57.744Z,22.33
2023-04-08T05:29:24.794Z,19.17
2023-04-08T05:31:51.879Z,20.17
2023-04-08T05:34:22.845Z,22.50
2023-04-08T05:36:53.771Z,23.97
2023-04-08T05:39:21.024Z,25.13
2023-04-08T05:41:48.135Z,22.55
2023-04-08T05:44:15.532Z,25.88
2023-04-08T05:46:42.608Z,22.85
2023-04-08T05:49:09.716Z,21.87
2023-04-08T05:51:36.803Z,23.95
2023-04-08T05:54:03.918Z,20.27
2023-04-08T05:56:32.248Z,22.02
2023-04-08T05:58:59.322Z,19.77
2023-04-08T06:01:26.521Z,26.13
2023-04-08T06:03:56.183Z,20.60
2023-04-08T06:06:23.713Z,20.70
2023-04-08T06:08:50.898Z,21.65
2023-04-08T06:11:18.174Z,25.13
2023-04-08T06:13:45.382Z,20.92
2023-04-08T06:16:13.105Z,24.42
2023-04-08T06:18:40.285Z,23.33
2023-04-08T06:21:07.376Z,23.23
2023-04-08T06:23:34.492Z,22.27
2023-04-08T06:26:01.607Z,24.08
2023-04-08T06:28:30.802Z,24.13
2023-04-08T06:30:58.301Z,26.25
2023-04-08T06:33:25.505Z,21.15
2023-04-08T06:35:52.810Z,19.55
2023-04-08T06:38:19.955Z,23.38
2023-04-08T06:40:47.020Z,20.67
2023-04-08T06:43:14.135Z,22.98
2023-04-08T06:45:42.819Z,23.05
2023-04-08T06:48:09.969Z,25.37
2023-04-08T06:50:37.112Z,25.55
2023-04-08T06:53:04.203Z,23.40
2023-04-08T06:55:31.494Z,21.48
2023-04-08T06:57:58.550Z,22.40
2023-04-08T07:00:25.655Z,18.15
2023-04-08T07:02:52.857Z,20.97
2023-04-08T07:05:20.269Z,21.37
2023-04-08T07:07:47.327Z,21.87
2023-04-08T07:10:14.478Z,24.42
2023-04-08T07:12:41.567Z,22.70
2023-04-08T07:15:08.902Z,24.00
2023-04-08T07:17:36.008Z,25.90
2023-04-08T07:22:39.043Z,22.30
2023-04-08T07:25:06.481Z,27.10
2023-04-08T07:27:36.745Z,23.15
2023-04-08T07:30:03.901Z,25.10
2023-04-08T07:32:31.141Z,20.77
2023-04-08T07:34:59.552Z,25.13
2023-04-08T07:37:26.686Z,24.45
2023-04-08T07:39:53.780Z,20.77
2023-04-08T07:42:20.860Z,22.10
2023-04-08T07:44:48.030Z,21.33
2023-04-08T07:47:15.089Z,20.23
2023-04-08T07:49:42.241Z,18.40
2023-04-08T07:52:09.313Z,20.42
2023-04-08T07:54:36.480Z,21.17
2023-04-08T07:57:03.564Z,18.92
2023-04-08T07:59:30.878Z,19.60
2023-04-08T08:01:58.110Z,18.40
2023-04-08T08:04:26.173Z,19.53
2023-04-08T08:06:53.386Z,20.20
2023-04-08T08:09:20.682Z,19.45
2023-04-08T08:11:47.754Z,17.08
2023-04-08T08:14:15.618Z,17.70
2023-04-08T08:16:42.680Z,18.02
2023-04-08T08:19:09.726Z,18.65
2023-04-08T08:21:39.788Z,20.08
2023-04-08T08:24:06.874Z,18.53
2023-04-08T08:26:37.093Z,20.80
2023-04-08T08:29:04.338Z,18.88
2023-04-08T08:31:31.540Z,21.10
2023-04-08T08:33:58.649Z,21.27
2023-04-08T08:36:27.314Z,19.73
2023-04-08T08:38:54.401Z,20.23
2023-04-08T08:41:24.521Z,22.77
2023-04-08T08:43:51.819Z,25.15
2023-04-08T08:46:19.347Z,22.77
2023-04-08T08:48:46.587Z,18.65
2023-04-08T08:51:15.384Z,24.35
2023-04-08T08:53:45.201Z,21.15
2023-04-08T08:56:18.522Z,21.48
2023-04-08T08:58:45.996Z,19.10
2023-04-08T09:01:32.434Z,21.17
2023-04-08T09:04:16.638Z,18.45
2023-04-08T09:06:44.156Z,19.48
2023-04-08T09:09:11.408Z,22.83
2023-04-08T09:11:41.927Z,20.70
2023-04-08T09:14:24.796Z,21.17
2023-04-08T09:16:52.132Z,25.40
2023-04-08T09:19:19.283Z,18.83
2023-04-08T09:21:47.550Z,19.10
2023-04-08T09:24:30.266Z,21.27
2023-04-08T09:26:57.588Z,22.10
2023-04-08T09:29:26.345Z,24.08
2023-04-08T09:31:58.010Z,20.92
2023-04-08T09:34:25.525Z,22.52
2023-04-08T09:36:52.920Z,23.13
2023-04-08T09:39:20.307Z,23.97
2023-04-08T09:41:48.916Z,23.20
2023-04-08T09:44:19.331Z,24.63
2023-04-08T09:46:52.753Z,18.98
2023-04-08T09:49:35.393Z,18.65
2023-04-08T09:52:07.371Z,19.77
2023-04-08T09:54:53.372Z,17.10
2023-04-08T09:57:26.612Z,18.45
2023-04-08T09:59:54.273Z,32.17
2023-04-08T10:02:24.090Z,26.15
2023-04-08T10:04:51.291Z,20.20
2023-04-08T10:07:19.217Z,22.80
2023-04-08T10:09:46.299Z,27.33
2023-04-08T10:12:13.358Z,23.30
2023-04-08T10:14:40.467Z,18.50
2023-04-08T10:17:25.445Z,19.30
2023-04-08T10:19:52.557Z,19.83
2023-04-08T10:22:34.628Z,19.48
2023-04-08T10:25:16.994Z,20.27
2023-04-08T10:27:44.473Z,25.27
2023-04-08T10:30:26.895Z,20.25
2023-04-08T10:32:56.421Z,21.85
2023-04-08T10:35:30.373Z,18.05
2023-04-08T10:37:58.540Z,21.33
2023-04-08T10:40:25.708Z,20.63
2023-04-08T10:42:59.242Z,17.75
2023-04-08T10:45:26.337Z,15.37
2023-04-08T10:47:53.404Z,16.33
2023-04-08T10:50:23.665Z,16.42
2023-04-08T10:52:54.605Z,15.70
2023-04-08T10:55:25.176Z,12.27
2023-04-08T10:57:52.275Z,14.50
2023-04-08T11:00:19.542Z,14.40
2023-04-08T11:02:46.726Z,15.48
2023-04-08T11:05:13.899Z,13.05
2023-04-08T11:07:44.176Z,15.27
2023-04-08T11:10:11.600Z,16.13
2023-04-08T11:12:38.690Z,16.92
2023-04-08T11:15:06.121Z,14.95
2023-04-08T11:17:35.284Z,20.02
2023-04-08T11:20:06.164Z,18.03
2023-04-08T11:22:34.433Z,17.17
2023-04-08T11:25:01.735Z,20.58
2023-04-08T11:27:28.815Z,17.40
2023-04-08T11:29:56.269Z,20.23
2023-04-08T11:32:23.603Z,19.17
2023-04-08T11:34:50.951Z,20.67
2023-04-08T11:37:18.037Z,19.23
2023-04-08T11:39:45.284Z,23.42
2023-04-08T11:42:31.352Z,26.13
2023-04-08T11:44:58.469Z,26.42
2023-04-08T11:47:33.364Z,26.98
2023-04-08T11:50:01.458Z,24.20
2023-04-08T11:52:47.538Z,30.85
2023-04-08T11:55:30.662Z,27.55
2023-04-08T11:57:58.106Z,25.58
2023-04-08T12:00:27.925Z,25.58
2023-04-08T12:02:55.175Z,22.70
2023-04-08T12:05:22.694Z,26.85
2023-04-08T12:07:49.762Z,23.95
2023-04-08T12:10:17.079Z,27.90
2023-04-08T12:12:44.166Z,24.63
2023-04-08T12:18:57.904Z,30.60
2023-04-08T12:21:24.975Z,27.50
